Overview Statistics Trail Chart Weather Telemetry Raw packets
 

This is the latest recevied weather packets stored in our database for station/object SV2RCS-13. If no packets are shown the sender has not sent any weather packets the latest 10 day(s).

<< 5 6 7 8 9 10 11 >>
Time Temp. Humidity Pressure Rain* Wind** Luminosity Snow
1788303340 25.56° C 43% 1014.7 hPa - - - -
1788302740 25.56° C 44% 1014.6 hPa - - - -
1788302140 25.56° C 43% 1014.6 hPa - - - -
1788301540 26.11° C 43% 1014.4 hPa - - - -
1788300940 26.11° C 43% 1014.4 hPa - - - -
1788300340 25.56° C 43% 1014.6 hPa - - - -
1788299740 26.11° C 42% 1014.6 hPa - - - -
1788299142 26.67° C 41% 1014.4 hPa - - - -
1788298540 26.11° C 41% 1014.4 hPa - - - -
1788297941 26.67° C 41% 1014.2 hPa - - - -
1788297340 26.67° C 41% 1014.2 hPa - - - -
1788296740 26.67° C 41% 1014.2 hPa - - - -
1788296141 26.67° C 40% 1014.1 hPa - - - -
1788295539 27.22° C 39% 1014 hPa - - - -
1788294940 27.22° C 39% 1014 hPa - - - -
1788294340 27.22° C 39% 1014 hPa - - - -
1788293743 27.22° C 39% 1013.9 hPa - - - -
1788293139 27.78° C 39% 1013.9 hPa - - - -
1788292540 27.78° C 39% 1013.7 hPa - - - -
1788291940 27.78° C 39% 1013.7 hPa - - - -
1788291340 27.78° C 39% 1013.6 hPa - - - -
1788290740 27.78° C 39% 1013.6 hPa - - - -
1788290140 28.33° C 38% 1013.4 hPa - - - -
1788289540 28.33° C 38% 1013.5 hPa - - - -
1788288940 28.33° C 38% 1013.4 hPa - - - -

* Rain since midnight (hover to see other rain measurements)
** Current wind speed in m/s (hover to see current wind gust speed)